Weather at Skógasandur Airport

Public forecast

Using degrees Celsius for public forecast. Weather courtesy of forecast.io.

Closest aviation weather report (METAR) to Skógasandur Airport

Report is more than 6 hours old.

Closest report is Vestmannaeyjar Airport, 21.9 nm (40.6 km) WSW. Retrieved 2021/06/20 20:00 UTC (13 hours ago):

BIVM 202000Z 29018KT CAVOK 09/04 Q1017

Closest aviation forecast (TAF) to Skógasandur Airport

Closest forecast is Reykjavik Airport, 74.6 nm (138.2 km) WNW. Retrieved 2021-06-21 03:21 UTC (6 hours ago):

TAF BIRK 210119Z 2103/2203 18012KT 9999 FEW016 OVC020 TX09/2115Z TN07/2103Z TEMPO 2103/2119 5000 RADZ BKN008 OVC013 BECMG 2110/2112 16022KT -RADZ BKN014 OVC030 BECMG 2119/2121 24012KT SCT025 BKN040 TEMPO 2120/2202 1500 -DZ BR OVC005 BECMG 2201/2203 -SHRA BKN018